Time;durP1;ratioP1;P1;durP2;ratioP2;P2;SDS_P1;SDS_P2;PMS_P1;PMS_P2;Temp;Humidity;BMP_temperature;BMP_pressure;BME280_temperature;BME280_humidity;BME280_pressure;Samples;Min_cycle;Max_cycle;Signal;HPM_P1;HPM_P2
2023/05/24 00:00:03;;;;;;;;;6.50;6.50;;;;;11.81;62.15;101464.28;5036028;28;45450;-65
2023/05/24 00:02:29;;;;;;;;;5.75;5.75;;;;;11.80;62.09;101464.31;5034961;28;45417;-78
2023/05/24 00:04:54;;;;;;;;;8.25;8.25;;;;;11.74;62.32;101456.59;5035250;28;48548;-68
2023/05/24 00:07:19;;;;;;;;;4.75;4.75;;;;;11.65;62.35;101453.34;5036136;28;45619;-77
2023/05/24 00:09:45;;;;;;;;;4.50;4.50;;;;;11.62;63.02;101455.19;5036826;28;45616;-82
2023/05/24 00:12:10;;;;;;;;;6.00;6.00;;;;;11.57;63.09;101452.72;5038655;28;45355;-80
2023/05/24 00:14:35;;;;;;;;;5.75;5.75;;;;;11.61;62.52;101446.44;5034965;28;45276;-71
2023/05/24 00:17:01;;;;;;;;;5.75;5.75;;;;;11.52;62.78;101433.53;5035527;28;47382;-60
2023/05/24 00:19:26;;;;;;;;;6.50;6.50;;;;;11.53;63.22;101437.91;5033834;28;60086;-64
2023/05/24 00:21:52;;;;;;;;;5.25;5.25;;;;;11.50;64.00;101441.47;5034718;28;45300;-61
2023/05/24 00:24:17;;;;;;;;;6.00;5.50;;;;;11.47;63.41;101435.44;5035170;28;45512;-61
2023/05/24 00:26:43;;;;;;;;;7.00;6.00;;;;;11.45;64.53;101439.91;5035091;28;45477;-63
2023/05/24 00:29:09;;;;;;;;;8.25;7.50;;;;;11.39;63.88;101435.66;5035315;28;45257;-75
2023/05/24 00:31:34;;;;;;;;;10.75;9.25;;;;;11.36;64.58;101438.41;5041972;28;45346;-68
2023/05/24 00:34:00;;;;;;;;;7.25;7.25;;;;;11.35;64.48;101431.41;5045116;28;46440;-74
2023/05/24 00:36:25;;;;;;;;;3.50;3.50;;;;;11.32;64.57;101435.00;5042129;28;45422;-65
2023/05/24 00:38:51;;;;;;;;;5.00;5.00;;;;;11.30;64.46;101426.28;5040100;28;45414;-81
2023/05/24 00:41:17;;;;;;;;;5.50;5.50;;;;;11.27;64.88;101415.84;5035953;28;45519;-75
2023/05/24 00:43:43;;;;;;;;;6.00;6.00;;;;;11.25;65.19;101417.66;5038645;28;45657;-63
2023/05/24 00:46:14;;;;;;;;;5.75;5.75;;;;;11.19;65.15;101416.06;5039805;28;46187;-66
2023/05/24 00:48:39;;;;;;;;;6.25;6.25;;;;;11.21;65.26;101421.28;5032728;28;45416;-76
2023/05/24 00:51:05;;;;;;;;;6.25;6.25;;;;;11.17;65.75;101417.03;5033521;28;45493;-66
2023/05/24 00:53:32;;;;;;;;;4.75;4.75;;;;;11.18;66.18;101418.75;5033503;28;45940;-64
2023/05/24 00:55:58;;;;;;;;;5.50;5.50;;;;;11.18;65.94;101419.59;5035211;28;46779;-67
2023/05/24 00:58:29;;;;;;;;;8.00;8.00;;;;;11.12;66.20;101406.63;5033076;28;45601;-66
2023/05/24 01:00:58;;;;;;;;;6.50;6.50;;;;;11.07;66.16;101398.84;5034871;28;45267;-66
2023/05/24 01:03:25;;;;;;;;;6.00;6.00;;;;;11.03;66.61;101407.72;5033315;28;45418;-69
2023/05/24 01:05:51;;;;;;;;;7.00;7.00;;;;;11.05;66.55;101412.97;5034003;28;48377;-78
2023/05/24 01:08:37;;;;;;;;;6.25;6.25;;;;;11.04;67.04;101411.25;5035982;28;45201;-79
2023/05/24 01:11:28;;;;;;;;;7.00;7.00;;;;;11.02;66.88;101410.41;5037902;28;45239;-64
2023/05/24 01:14:17;;;;;;;;;7.00;7.00;;;;;10.92;67.23;101394.91;5035820;28;45551;-81
2023/05/24 01:16:55;;;;;;;;;7.50;7.50;;;;;10.92;67.38;101402.78;5035254;28;45401;-61
2023/05/24 01:19:35;;;;;;;;;7.25;7.25;;;;;10.92;67.20;101409.81;5034449;28;45310;-67
2023/05/24 01:22:16;;;;;;;;;6.75;6.75;;;;;10.90;67.87;101416.88;5033757;28;45405;-72
2023/05/24 01:25:03;;;;;;;;;6.75;6.00;;;;;10.89;68.16;101421.31;5033903;28;45502;-65
2023/05/24 01:27:32;;;;;;;;;8.50;8.50;;;;;10.82;67.84;101406.59;5034838;28;45995;-68
2023/05/24 01:29:58;;;;;;;;;9.00;8.50;;;;;10.85;67.95;101416.16;5034840;28;45379;-69
2023/05/24 01:32:24;;;;;;;;;7.00;7.00;;;;;10.82;68.33;101422.38;5035163;28;45207;-62
2023/05/24 01:34:50;;;;;;;;;6.50;6.00;;;;;10.79;68.29;101419.84;5034951;28;45266;-66
2023/05/24 01:37:15;;;;;;;;;7.00;7.00;;;;;10.82;68.65;101423.22;5034727;28;46080;-72
2023/05/24 01:39:41;;;;;;;;;6.50;6.50;;;;;10.83;68.93;101421.47;5035189;28;45302;-63
2023/05/24 01:42:29;;;;;;;;;6.75;6.75;;;;;10.81;68.43;101424.13;5035110;28;45442;-66
2023/05/24 01:45:13;;;;;;;;;4.50;4.50;;;;;10.76;69.37;101430.44;5034810;28;45421;-67
2023/05/24 01:47:55;;;;;;;;;6.50;6.50;;;;;10.74;69.42;101432.25;5034701;28;45475;-65
2023/05/24 01:50:30;;;;;;;;;5.00;5.00;;;;;10.68;69.65;101425.38;5034295;28;45234;-62
2023/05/24 01:53:05;;;;;;;;;7.00;7.00;;;;;10.62;70.65;101422.91;5034858;28;45542;-66
2023/05/24 01:55:34;;;;;;;;;7.75;7.75;;;;;10.57;70.35;101427.44;5017480;28;45629;-61
2023/05/24 01:58:03;;;;;;;;;5.75;5.75;;;;;10.54;70.88;101420.47;5051124;28;46982;-67
2023/05/24 02:00:30;;;;;;;;;6.25;6.25;;;;;10.54;70.66;101436.25;5050861;28;45435;-82
2023/05/24 02:02:56;;;;;;;;;5.50;5.50;;;;;10.50;71.09;101434.63;5034918;28;45194;-68
2023/05/24 02:05:22;;;;;;;;;4.50;4.50;;;;;10.47;71.31;101421.53;5033686;28;45475;-74
2023/05/24 02:07:47;;;;;;;;;7.25;7.25;;;;;10.40;71.40;101412.97;5034616;28;46077;-73
2023/05/24 02:10:13;;;;;;;;;7.00;7.00;;;;;10.41;72.25;101435.72;5034913;28;45427;-68
2023/05/24 02:12:38;;;;;;;;;7.25;7.25;;;;;10.37;71.75;101439.31;5035447;28;45279;-78
2023/05/24 02:15:04;;;;;;;;;8.25;8.25;;;;;10.32;72.36;101422.78;5034910;28;45603;-72
2023/05/24 02:17:31;;;;;;;;;7.25;7.25;;;;;10.33;72.48;101427.16;5036281;28;45423;-67
2023/05/24 02:19:57;;;;;;;;;6.00;6.00;;;;;10.28;72.73;101418.50;5037380;28;45406;-61
2023/05/24 02:22:22;;;;;;;;;7.00;7.00;;;;;10.26;73.23;101415.06;5038711;28;45308;-60
2023/05/24 02:24:48;;;;;;;;;7.50;7.00;;;;;10.11;73.15;101403.16;5035963;28;45553;-77
2023/05/24 02:27:13;;;;;;;;;6.50;6.50;;;;;10.22;73.22;101422.16;5034738;28;46240;-64
2023/05/24 02:29:40;;;;;;;;;7.00;7.00;;;;;10.21;73.58;101428.31;5034431;28;45636;-68
2023/05/24 02:32:06;;;;;;;;;5.25;5.25;;;;;10.16;73.50;101419.69;5038688;28;45217;-76
2023/05/24 02:34:31;;;;;;;;;7.00;7.00;;;;;10.14;73.70;101426.72;5038181;28;45622;-72
2023/05/24 02:36:57;;;;;;;;;7.75;6.75;;;;;10.12;74.14;101429.41;5038141;28;45253;-76
2023/05/24 02:39:22;;;;;;;;;8.25;8.25;;;;;10.08;74.77;101417.25;5037635;28;45410;-69
2023/05/24 02:41:47;;;;;;;;;8.25;8.25;;;;;10.04;74.60;101423.47;5037699;28;45409;-75
2023/05/24 02:44:12;;;;;;;;;7.00;6.25;;;;;10.01;75.01;101413.91;5038444;28;45500;-78
2023/05/24 02:46:38;;;;;;;;;7.25;7.25;;;;;10.01;75.52;101411.28;5037619;28;52560;-75
2023/05/24 02:49:04;;;;;;;;;8.75;6.50;;;;;10.01;75.28;101413.91;5037724;28;45386;-82
2023/05/24 02:51:29;;;;;;;;;8.00;8.00;;;;;10.00;75.24;101414.78;5038064;28;45340;-78
2023/05/24 02:53:55;;;;;;;;;7.00;7.00;;;;;9.96;75.00;101405.25;5038180;28;45554;-84
2023/05/24 02:56:20;;;;;;;;;7.00;7.00;;;;;10.02;75.20;101407.75;5038125;28;45900;-80
2023/05/24 02:58:46;;;;;;;;;6.00;6.00;;;;;10.04;75.61;101413.81;5037564;28;45419;-76
2023/05/24 03:01:11;;;;;;;;;8.00;8.00;;;;;9.98;75.44;101400.84;5053365;28;45325;-76
2023/05/24 03:03:38;;;;;;;;;8.50;8.50;;;;;9.94;75.99;101394.78;5053436;28;45279;-76
2023/05/24 03:06:05;;;;;;;;;1.75;0.00;;;;;9.97;76.14;101393.84;5037587;28;47183;-82
2023/05/24 03:08:31;;;;;;;;;7.25;7.25;;;;;9.92;76.39;101396.56;5037389;28;45305;-84
2023/05/24 03:10:56;;;;;;;;;4.75;4.75;;;;;9.87;76.94;101394.97;5037472;28;45329;-82
2023/05/24 03:13:22;;;;;;;;;6.25;6.25;;;;;9.87;76.49;101408.97;5037995;28;45635;-81
2023/05/24 03:15:47;;;;;;;;;9.00;7.50;;;;;9.87;76.65;101398.44;5037704;28;45352;-77
2023/05/24 03:18:13;;;;;;;;;5.75;5.75;;;;;9.84;76.68;101393.28;5037898;28;45336;-77
2023/05/24 03:20:38;;;;;;;;;10.00;9.00;;;;;9.87;77.14;101408.13;5037326;28;45259;-80
2023/05/24 03:23:03;;;;;;;;;7.00;6.50;;;;;9.86;76.72;101401.13;5037062;28;45563;-79
2023/05/24 03:25:29;;;;;;;;;7.25;7.25;;;;;9.86;77.08;101390.63;5036940;28;46695;-77
2023/05/24 03:27:54;;;;;;;;;7.25;7.25;;;;;9.83;77.23;101396.78;5037098;28;45325;-82
2023/05/24 03:30:20;;;;;;;;;8.00;8.00;;;;;9.74;77.14;101382.13;5035327;28;45291;-82
2023/05/24 03:32:45;;;;;;;;;8.75;8.00;;;;;9.81;77.95;101395.13;5037243;28;45493;-79
2023/05/24 03:35:11;;;;;;;;;6.50;6.50;;;;;9.74;77.76;101392.66;5036919;28;45551;-79
2023/05/24 03:37:37;;;;;;;;;3.25;3.25;;;;;9.81;77.96;101403.84;5037027;28;45387;-80
2023/05/24 03:40:03;;;;;;;;;7.50;7.50;;;;;9.78;78.08;101401.31;5037033;28;45387;-82
2023/05/24 03:42:28;;;;;;;;;7.00;7.00;;;;;9.72;78.64;101404.06;5035380;28;45249;-78
2023/05/24 03:44:54;;;;;;;;;8.00;8.00;;;;;9.72;78.63;101409.31;5037093;28;45444;-76
2023/05/24 03:47:20;;;;;;;;;9.50;8.75;;;;;9.75;78.59;101415.38;5037188;28;45412;-72
2023/05/24 03:49:45;;;;;;;;;9.75;9.00;;;;;9.74;78.70;101405.78;5036167;28;45392;-66
2023/05/24 03:52:11;;;;;;;;;6.75;6.75;;;;;9.76;78.63;101403.09;5037293;28;45420;-71
2023/05/24 03:54:36;;;;;;;;;9.00;9.00;;;;;9.77;78.91;101413.59;5036471;28;45494;-69
2023/05/24 03:57:01;;;;;;;;;8.00;8.00;;;;;9.72;79.43;101411.94;5036254;28;45389;-71
2023/05/24 03:59:27;;;;;;;;;7.75;7.75;;;;;9.70;78.90;101412.00;5037763;28;45378;-74
2023/05/24 04:01:53;;;;;;;;;8.00;8.00;;;;;9.73;79.07;101416.31;5040090;28;44843;-71
2023/05/24 04:04:18;;;;;;;;;6.75;6.75;;;;;9.72;78.89;101417.22;5046170;28;45676;-74
2023/05/24 04:06:44;;;;;;;;;7.50;7.50;;;;;9.73;78.78;101422.44;5047210;28;52461;-69
2023/05/24 04:09:09;;;;;;;;;6.75;6.75;;;;;9.70;78.76;101413.75;5049703;28;45371;-63
2023/05/24 04:11:35;;;;;;;;;11.00;8.00;;;;;9.74;78.93;101425.91;5047333;28;45394;-67
2023/05/24 04:14:01;;;;;;;;;7.75;7.75;;;;;9.70;78.82;101416.38;5041206;28;45464;-78
2023/05/24 04:16:27;;;;;;;;;10.25;8.25;;;;;9.74;79.57;101415.41;5039953;28;45291;-77
2023/05/24 04:18:54;;;;;;;;;6.00;5.75;;;;;9.69;79.04;101414.66;5042793;28;45197;-70
2023/05/24 04:21:20;;;;;;;;;8.75;8.75;;;;;9.78;79.03;101422.31;5038840;28;45465;-76
2023/05/24 04:23:45;;;;;;;;;8.00;8.00;;;;;9.81;78.57;101421.41;5037324;28;45424;-68
2023/05/24 04:26:11;;;;;;;;;8.00;8.00;;;;;9.76;78.58;101419.75;5038716;28;45354;-72
2023/05/24 04:28:40;;;;;;;;;9.25;9.25;;;;;9.78;78.66;101424.94;5038163;28;45366;-70
2023/05/24 04:31:06;;;;;;;;;8.00;8.00;;;;;9.77;78.96;101428.47;5043668;28;45371;-77
2023/05/24 04:33:33;;;;;;;;;6.00;6.00;;;;;9.67;78.63;101412.06;5042180;28;45374;-72
2023/05/24 04:36:00;;;;;;;;;8.00;8.00;;;;;9.83;78.19;101432.75;5059975;28;45292;-80
2023/05/24 04:38:28;;;;;;;;;6.00;6.00;;;;;9.89;78.23;101437.84;5055622;28;45784;-79
2023/05/24 04:40:55;;;;;;;;;8.75;8.25;;;;;9.88;78.02;101436.97;5037256;28;45472;-78
2023/05/24 04:43:21;;;;;;;;;6.00;6.00;;;;;9.88;78.10;101441.38;5037826;28;46249;-79
2023/05/24 04:45:47;;;;;;;;;5.50;5.50;;;;;9.94;77.85;101449.97;5039505;28;45288;-78
2023/05/24 04:48:12;;;;;;;;;6.00;6.00;;;;;9.94;78.00;101454.38;5038897;28;45474;-73
2023/05/24 04:50:37;;;;;;;;;7.25;7.25;;;;;9.93;77.90;101450.88;5038087;28;45561;-66
2023/05/24 04:53:03;;;;;;;;;8.50;8.50;;;;;9.96;77.92;101463.09;5039218;28;45442;-84
2023/05/24 04:55:28;;;;;;;;;10.00;8.25;;;;;9.97;77.42;101456.94;5037495;28;45361;-78
2023/05/24 04:57:54;;;;;;;;;7.00;7.00;;;;;9.99;77.63;101462.13;5035862;28;45201;-71
2023/05/24 05:00:20;;;;;;;;;10.00;9.25;;;;;9.99;77.77;101457.75;5035243;28;45375;-69
2023/05/24 05:02:45;;;;;;;;;10.00;7.50;;;;;9.96;78.00;101454.31;5034593;28;46006;-74
2023/05/24 05:05:11;;;;;;;;;5.50;5.50;;;;;9.97;77.70;101456.03;5034667;28;45232;-68
2023/05/24 05:07:37;;;;;;;;;9.50;8.50;;;;;10.03;77.87;101464.66;5034920;28;45351;-68
2023/05/24 05:10:03;;;;;;;;;6.25;6.25;;;;;10.07;77.86;101458.44;5034748;28;45714;-65
2023/05/24 05:12:28;;;;;;;;;5.25;5.00;;;;;10.11;77.58;101448.72;5034532;28;47371;-68
2023/05/24 05:14:54;;;;;;;;;8.00;8.00;;;;;10.07;77.13;101436.53;5032064;28;45299;-65
2023/05/24 05:17:19;;;;;;;;;13.00;10.50;;;;;10.26;76.61;101457.97;5022859;28;45548;-65
2023/05/24 05:19:44;;;;;;;;;8.00;8.00;;;;;10.22;76.44;101435.28;5031020;28;45562;-72
2023/05/24 05:22:10;;;;;;;;;8.75;8.75;;;;;10.46;76.00;101459.28;5024021;28;47166;-70
2023/05/24 05:24:36;;;;;;;;;11.00;11.00;;;;;10.54;75.68;101452.03;5025209;28;45524;-72
2023/05/24 05:27:01;;;;;;;;;5.00;5.00;;;;;10.59;75.14;101455.41;5032992;28;45429;-76
2023/05/24 05:29:26;;;;;;;;;9.50;8.00;;;;;10.68;75.15;101451.69;5034627;28;45199;-68
2023/05/24 05:31:52;;;;;;;;;8.75;8.75;;;;;10.80;74.73;101458.41;5024786;28;45405;-70
2023/05/24 05:34:18;;;;;;;;;9.00;8.75;;;;;10.87;74.81;101453.81;5034582;28;45228;-67
2023/05/24 05:36:43;;;;;;;;;7.50;7.50;;;;;10.96;74.21;101451.81;5035486;28;45189;-65
2023/05/24 05:39:08;;;;;;;;;9.75;9.75;;;;;11.03;73.22;101443.75;5035111;28;45249;-64
2023/05/24 05:41:44;;;;;;;;;8.50;8.50;;;;;11.17;73.12;101448.63;5034567;28;46169;-67
2023/05/24 05:44:11;;;;;;;;;14.25;13.75;;;;;11.24;72.74;101448.38;5035064;28;45430;-69
2023/05/24 05:46:37;;;;;;;;;12.25;11.25;;;;;11.36;73.01;101455.06;5034662;28;45293;-63
2023/05/24 05:49:02;;;;;;;;;6.25;6.25;;;;;11.45;72.50;101439.91;5034912;28;45538;-68
2023/05/24 05:51:27;;;;;;;;;8.50;8.25;;;;;11.48;71.70;101455.63;5022514;28;46304;-64
2023/05/24 05:53:53;;;;;;;;;11.50;11.50;;;;;11.50;71.40;101454.66;5035106;28;45382;-66
2023/05/24 05:56:18;;;;;;;;;10.00;10.00;;;;;11.50;70.91;101457.28;5033090;28;45415;-65
2023/05/24 05:58:44;;;;;;;;;10.50;10.50;;;;;11.49;70.72;101473.16;5034462;28;45253;-69
2023/05/24 06:01:09;;;;;;;;;10.25;10.25;;;;;11.40;71.47;101467.25;5033832;28;45395;-73
2023/05/24 06:03:34;;;;;;;;;9.00;8.25;;;;;11.45;71.38;101467.09;5033035;28;45351;-67
2023/05/24 06:06:00;;;;;;;;;9.50;9.50;;;;;11.48;71.25;101461.75;5045611;28;45419;-68
2023/05/24 06:08:26;;;;;;;;;7.75;7.75;;;;;11.48;70.97;101471.44;5035497;28;45537;-70
2023/05/24 06:10:51;;;;;;;;;8.00;8.00;;;;;11.38;70.84;101447.13;5051497;28;46314;-69
2023/05/24 06:13:17;;;;;;;;;11.00;10.75;;;;;11.39;70.59;101454.09;5041697;28;45386;-70
2023/05/24 06:15:42;;;;;;;;;10.00;10.00;;;;;11.38;70.99;101458.53;5019225;28;45303;-72
2023/05/24 06:18:07;;;;;;;;;11.50;11.50;;;;;11.39;70.98;101464.66;5016084;28;45265;-69
2023/05/24 06:20:33;;;;;;;;;11.50;11.50;;;;;11.35;71.12;101463.88;5017213;28;46442;-71
2023/05/24 06:22:58;;;;;;;;;9.25;9.25;;;;;11.45;70.78;101466.25;5020582;28;45222;-68
2023/05/24 06:25:24;;;;;;;;;9.75;9.75;;;;;11.47;70.88;101480.25;5036284;28;45351;-69
2023/05/24 06:27:52;;;;;;;;;13.50;12.25;;;;;11.48;70.73;101479.34;5048819;28;45585;-69
2023/05/24 06:30:18;;;;;;;;;10.00;10.00;;;;;11.47;70.57;101483.72;5045872;28;46525;-70
2023/05/24 06:32:43;;;;;;;;;10.50;10.50;;;;;11.51;70.96;101487.16;5068654;28;45551;-69
2023/05/24 06:35:09;;;;;;;;;9.50;9.00;;;;;11.51;70.91;101477.44;5036550;28;45328;-69
2023/05/24 06:37:34;;;;;;;;;10.75;10.75;;;;;11.50;70.54;101469.63;5017902;28;45305;-68
2023/05/24 06:40:00;;;;;;;;;8.75;8.75;;;;;11.48;70.07;101481.97;5020738;28;45589;-74
2023/05/24 06:42:25;;;;;;;;;9.50;7.75;;;;;11.40;70.40;101475.16;5036404;28;45438;-74
2023/05/24 06:44:51;;;;;;;;;11.75;11.75;;;;;11.42;69.99;101485.63;5038887;28;48639;-75
2023/05/24 06:47:16;;;;;;;;;6.75;6.75;;;;;11.32;70.28;101471.88;5053625;28;45331;-78
2023/05/24 06:49:41;;;;;;;;;10.00;10.00;;;;;11.42;70.44;101488.25;5035950;28;46592;-81
2023/05/24 06:52:07;;;;;;;;;10.75;10.25;;;;;11.42;70.71;101464.56;5036927;28;45280;-82
2023/05/24 06:54:33;;;;;;;;;9.50;9.50;;;;;11.52;70.66;101473.91;5036468;28;45501;-79
2023/05/24 06:56:58;;;;;;;;;10.00;10.00;;;;;11.59;70.70;101479.00;5034308;28;45451;-81
2023/05/24 06:59:24;;;;;;;;;8.00;8.00;;;;;11.62;69.98;101466.59;5037548;28;46587;-81
2023/05/24 07:01:56;;;;;;;;;9.25;9.25;;;;;11.70;70.22;101482.19;5037537;28;45285;-82
2023/05/24 07:04:21;;;;;;;;;8.25;8.25;;;;;11.81;69.35;101481.84;5037400;28;45308;-82
2023/05/24 07:06:46;;;;;;;;;8.75;8.75;;;;;11.90;69.43;101478.94;5053322;28;45548;-82
2023/05/24 07:09:13;;;;;;;;;11.00;11.00;;;;;11.97;69.03;101476.97;5037628;28;46362;-82
2023/05/24 07:11:39;;;;;;;;;9.25;9.25;;;;;12.04;68.79;101483.81;5052992;28;45181;-83
2023/05/24 07:14:05;;;;;;;;;6.75;6.75;;;;;12.05;68.06;101468.84;5037540;28;45767;-78
2023/05/24 07:16:30;;;;;;;;;9.50;9.50;;;;;12.13;67.53;101480.88;5036992;28;45291;-77
2023/05/24 07:18:57;;;;;;;;;9.00;9.00;;;;;12.15;67.43;101491.34;5037628;28;46819;-82
2023/05/24 07:21:22;;;;;;;;;9.50;9.50;;;;;12.20;67.87;101489.47;5052618;28;45454;-82
2023/05/24 07:23:50;;;;;;;;;6.00;6.00;;;;;12.24;67.42;101480.53;5037781;28;45444;-80
2023/05/24 07:26:15;;;;;;;;;9.00;9.00;;;;;12.32;67.61;101487.34;5037684;28;45353;-80
2023/05/24 07:28:41;;;;;;;;;8.25;7.50;;;;;12.45;66.63;101490.41;5037509;28;46089;-80
2023/05/24 07:31:08;;;;;;;;;7.75;7.75;;;;;12.48;66.23;101488.53;5037110;28;45285;-81
2023/05/24 07:33:36;;;;;;;;;8.75;8.25;;;;;12.53;65.91;101485.72;5037175;28;45260;-80
2023/05/24 07:36:01;;;;;;;;;8.75;8.75;;;;;12.55;65.87;101492.69;5039131;28;45624;-69
2023/05/24 07:38:28;;;;;;;;;11.00;10.75;;;;;12.66;65.84;101489.66;5038849;28;46132;-72
2023/05/24 07:40:53;;;;;;;;;8.75;8.75;;;;;12.71;65.48;101486.88;5039634;28;45327;-70
2023/05/24 07:43:18;;;;;;;;;9.00;9.00;;;;;12.78;65.43;101492.84;5038375;28;45297;-69
2023/05/24 07:45:44;;;;;;;;;11.00;11.00;;;;;12.79;65.43;101478.72;5036625;28;45329;-66
2023/05/24 07:48:10;;;;;;;;;9.75;9.75;;;;;12.87;65.14;101497.78;5036291;28;45482;-72
2023/05/24 07:50:36;;;;;;;;;10.50;9.00;;;;;12.86;65.18;101494.28;5036143;28;45451;-70
2023/05/24 07:53:01;;;;;;;;;9.00;9.00;;;;;12.94;64.69;101499.28;5036446;28;45402;-67
2023/05/24 07:55:27;;;;;;;;;7.75;7.75;;;;;13.02;64.15;101509.56;5036348;28;45374;-67
2023/05/24 07:57:52;;;;;;;;;8.25;8.25;;;;;13.05;63.83;101498.06;5036377;28;45293;-69
2023/05/24 08:00:18;;;;;;;;;11.50;11.50;;;;;13.08;63.37;101501.44;5037369;28;45151;-79
2023/05/24 08:02:45;;;;;;;;;10.50;10.50;;;;;13.12;63.48;101494.25;5037340;28;45459;-82
2023/05/24 08:05:11;;;;;;;;;9.00;9.00;;;;;13.24;63.16;101501.75;5037601;28;45238;-78
2023/05/24 08:07:37;;;;;;;;;10.50;10.50;;;;;13.29;62.76;101494.50;5037028;28;46374;-81
2023/05/24 08:10:03;;;;;;;;;13.50;13.50;;;;;13.36;61.93;101502.19;5038822;28;45403;-70
2023/05/24 08:12:31;;;;;;;;;9.00;8.25;;;;;13.43;62.70;101503.72;5038532;28;45367;-82
2023/05/24 08:14:57;;;;;;;;;9.75;9.75;;;;;13.49;62.52;101495.56;5037404;28;45611;-79
2023/05/24 08:17:22;;;;;;;;;8.00;8.00;;;;;13.56;60.81;101493.56;5035754;28;45443;-81
2023/05/24 08:19:47;;;;;;;;;7.00;7.00;;;;;13.55;60.90;101486.56;5051789;28;45340;-79
2023/05/24 08:22:13;;;;;;;;;9.00;9.00;;;;;13.64;61.29;101494.13;5036663;28;45252;-82
2023/05/24 08:24:38;;;;;;;;;7.25;7.25;;;;;13.69;59.92;101496.59;5036466;28;45168;-81
2023/05/24 08:27:04;;;;;;;;;8.50;8.25;;;;;13.78;59.83;101504.16;5035987;28;46556;-71
2023/05/24 08:29:29;;;;;;;;;6.75;6.75;;;;;13.73;58.62;101487.63;5036243;28;45274;-83
2023/05/24 08:31:55;;;;;;;;;10.00;10.00;;;;;13.84;58.58;101506.59;5036342;28;45299;-78
2023/05/24 08:34:20;;;;;;;;;9.75;8.25;;;;;13.91;58.43;101501.06;5036532;28;45270;-79
2023/05/24 08:36:46;;;;;;;;;7.50;7.50;;;;;14.02;57.76;101494.41;5037776;28;46658;-76
2023/05/24 08:39:11;;;;;;;;;6.25;6.25;;;;;14.07;56.21;101499.53;5040136;28;45635;-80
2023/05/24 08:41:37;;;;;;;;;6.25;6.25;;;;;14.19;55.93;101500.78;5035827;28;45297;-82
2023/05/24 08:44:06;;;;;;;;;8.50;8.50;;;;;14.24;55.20;101501.47;5037124;28;45572;-82
2023/05/24 08:46:35;;;;;;;;;5.50;3.50;;;;;14.28;54.51;101504.88;5036665;28;45312;-78
2023/05/24 08:49:06;;;;;;;;;4.25;4.25;;;;;14.34;55.00;101498.47;5035972;28;45359;-79
2023/05/24 08:51:32;;;;;;;;;5.25;5.25;;;;;14.38;52.90;101489.47;5036273;28;45359;-81
2023/05/24 08:53:58;;;;;;;;;6.00;6.00;;;;;14.52;48.62;101504.75;5034988;28;45243;-81
2023/05/24 08:56:25;;;;;;;;;6.25;6.25;;;;;14.55;50.45;101500.22;5036015;28;47082;-79
2023/05/24 08:58:52;;;;;;;;;6.25;6.25;;;;;14.61;51.05;101497.31;5036129;28;45266;-81
2023/05/24 09:01:17;;;;;;;;;5.50;5.50;;;;;14.67;50.35;101490.03;5036132;28;45331;-81
2023/05/24 09:03:45;;;;;;;;;5.25;5.25;;;;;14.74;51.62;101491.50;5036961;28;45417;-79
2023/05/24 09:06:12;;;;;;;;;7.00;7.00;;;;;14.83;50.91;101482.28;5052156;28;47808;-80
2023/05/24 09:08:39;;;;;;;;;5.75;5.75;;;;;14.90;49.80;101489.91;5036545;28;45295;-82
2023/05/24 09:11:07;;;;;;;;;4.25;4.25;;;;;14.94;50.39;101488.00;5037393;28;45261;-83
2023/05/24 09:13:33;;;;;;;;;4.00;4.00;;;;;15.06;50.91;101483.09;5038844;28;45440;-81
2023/05/24 09:15:59;;;;;;;;;7.50;7.25;;;;;15.15;50.71;101480.88;5044397;28;46219;-76
2023/05/24 09:18:25;;;;;;;;;4.50;4.50;;;;;15.23;49.68;101482.31;5038950;28;45342;-75
2023/05/24 09:20:50;;;;;;;;;6.00;6.00;;;;;15.29;47.83;101490.84;5039345;28;45354;-78
2023/05/24 09:23:16;;;;;;;;;5.00;5.00;;;;;15.35;48.48;101481.75;5039014;28;45272;-81
2023/05/24 09:25:43;;;;;;;;;3.00;3.00;;;;;15.39;46.44;101478.06;5038015;28;46339;-74
2023/05/24 09:28:13;;;;;;;;;7.00;7.00;;;;;15.43;46.43;101484.94;5037755;28;44764;-80
2023/05/24 09:30:41;;;;;;;;;2.75;2.75;;;;;15.45;47.05;101483.06;5035950;28;45477;-78
2023/05/24 09:33:07;;;;;;;;;4.75;4.75;;;;;15.50;46.92;101480.19;5036725;28;45501;-82
2023/05/24 09:35:33;;;;;;;;;4.75;4.00;;;;;15.59;47.64;101478.91;5035570;28;48786;-80
2023/05/24 09:37:59;;;;;;;;;3.00;3.00;;;;;15.60;45.75;101467.38;5034772;28;45251;-79
2023/05/24 09:40:26;;;;;;;;;5.00;5.00;;;;;15.71;46.07;101474.78;5039917;28;45243;-72
2023/05/24 09:43:11;;;;;;;;;11.25;11.25;;;;;15.74;44.69;101467.56;5039627;28;45435;-77
2023/05/24 09:45:45;;;;;;;;;12.75;12.75;;;;;15.82;44.97;101484.91;5038937;28;47550;-74
2023/05/24 09:48:12;;;;;;;;;4.00;4.00;;;;;15.84;45.13;101481.22;5039851;28;45333;-80
2023/05/24 09:50:38;;;;;;;;;5.00;5.00;;;;;15.78;44.75;101471.78;5040146;28;45399;-78
2023/05/24 09:53:04;;;;;;;;;3.75;3.25;;;;;15.92;45.27;101486.22;5038376;28;45272;-77
2023/05/24 09:55:34;;;;;;;;;5.75;5.75;;;;;15.95;44.13;101477.25;5038992;28;46341;-73
2023/05/24 09:58:07;;;;;;;;;3.25;3.25;;;;;16.01;44.31;101480.47;5038870;28;45347;-72
2023/05/24 10:00:35;;;;;;;;;7.50;6.75;;;;;16.11;42.98;101475.56;5039209;28;45425;-79
2023/05/24 10:03:03;;;;;;;;;5.00;5.00;;;;;16.21;42.38;101481.28;5038694;28;45618;-78
2023/05/24 10:05:28;;;;;;;;;6.75;6.75;;;;;16.29;41.02;101472.94;5038882;28;47451;-82
2023/05/24 10:07:55;;;;;;;;;3.75;3.75;;;;;16.29;41.40;101472.94;5040286;28;45326;-79
2023/05/24 10:10:21;;;;;;;;;3.75;3.75;;;;;16.31;41.59;101468.41;5040061;28;45435;-83
2023/05/24 10:12:48;;;;;;;;;7.00;7.00;;;;;16.39;41.05;101468.88;5040469;28;45325;-78
2023/05/24 10:15:14;;;;;;;;;2.75;2.75;;;;;16.46;41.33;101474.75;5039881;28;46556;-80
2023/05/24 10:17:40;;;;;;;;;3.00;3.00;;;;;16.49;39.91;101462.16;5040996;28;45162;-80
2023/05/24 10:20:06;;;;;;;;;7.25;7.25;;;;;16.51;41.02;101462.09;5042072;28;45600;-78
2023/05/24 10:22:37;;;;;;;;;5.00;5.00;;;;;16.64;41.72;101460.53;5042250;28;45229;-74
2023/05/24 10:25:05;;;;;;;;;8.25;8.25;;;;;16.70;40.65;101448.69;5041689;28;46377;-80
2023/05/24 10:27:32;;;;;;;;;3.25;3.25;;;;;16.80;39.94;101463.22;5043984;28;45843;-77
2023/05/24 10:30:13;;;;;;;;;5.00;5.00;;;;;16.87;40.82;101455.78;5043898;28;45439;-79
2023/05/24 10:32:42;;;;;;;;;6.00;6.00;;;;;16.91;40.66;101451.16;5043406;28;45588;-83
2023/05/24 10:35:11;;;;;;;;;5.00;4.75;;;;;17.04;39.61;101454.06;5046207;28;46774;-72
2023/05/24 10:37:37;;;;;;;;;13.00;13.00;;;;;17.12;40.16;101443.03;5038858;28;45875;-77
2023/05/24 10:40:05;;;;;;;;;11.50;11.50;;;;;17.15;40.70;101441.06;5039467;28;45350;-80
2023/05/24 10:42:31;;;;;;;;;13.00;13.00;;;;;17.30;39.89;101455.31;5056379;28;46170;-80
2023/05/24 10:44:56;;;;;;;;;6.75;6.75;;;;;17.31;38.83;101456.16;5039007;28;47333;-80
2023/05/24 10:47:27;;;;;;;;;11.00;11.00;;;;;17.33;39.59;101449.84;5039834;28;45434;-78
2023/05/24 10:49:58;;;;;;;;;6.25;6.25;;;;;17.40;37.67;101454.81;5041649;28;45234;-76
2023/05/24 10:52:34;;;;;;;;;4.75;4.25;;;;;17.42;38.70;101455.59;5042660;28;45386;-81
2023/05/24 10:55:03;;;;;;;;;6.00;6.00;;;;;17.46;38.06;101450.00;5040752;28;46530;-82
2023/05/24 10:57:31;;;;;;;;;5.25;5.25;;;;;17.46;38.76;101439.34;5040362;28;45237;-74
2023/05/24 10:59:57;;;;;;;;;2.25;2.25;;;;;17.55;38.04;101451.31;5041659;28;45463;-75
2023/05/24 11:02:27;;;;;;;;;2.75;2.75;;;;;17.55;38.06;101443.31;5040336;28;45537;-76
2023/05/24 11:04:55;;;;;;;;;3.50;3.50;;;;;17.66;37.67;101451.56;5040561;28;47093;-75
2023/05/24 11:07:20;;;;;;;;;8.75;8.75;;;;;17.63;38.11;101433.09;5043192;28;45161;-75
2023/05/24 11:09:51;;;;;;;;;7.50;7.25;;;;;17.78;38.22;101454.47;5057066;28;45262;-73
2023/05/24 11:12:19;;;;;;;;;16.75;16.75;;;;;17.89;38.42;101454.72;5041778;28;45471;-76
2023/05/24 11:14:52;;;;;;;;;5.25;5.25;;;;;18.02;38.17;101448.72;5041549;28;45416;-82
2023/05/24 11:17:22;;;;;;;;;6.00;6.00;;;;;18.09;36.92;101452.75;5039839;28;45365;-76
2023/05/24 11:19:52;;;;;;;;;4.00;4.00;;;;;18.10;36.45;101449.16;5040097;28;45354;-79
2023/05/24 11:22:20;;;;;;;;;6.50;4.25;;;;;18.09;37.30;101448.28;5039917;28;45420;-73